Chardon, Ohio
Current Conditions -  °F | °C
As of 3:55 PM on Tuesday 27 Jan 2015 (Local Time) from KLNN Reporting Station
Overcast Overcast  
Wind Chill: 10°   Ceiling: 8000
Heat Index: 18°   Visibility: 10mi
Dew Point: 10°   Wind: 6mph
Humidity: 72%   Direction: 20°NNE
Pressure: 30.1"   Gusts: NA
Location:  41.61°N, 81.15°W
Report Text: KLNN 272055Z AUTO 02005KT 10SM OVC080 M08/M12 A3010 RMK AO1 T10781121
Loading
Personal Weather Stations






























Interactive Weather Map New forecast layout! Learn more

10-Day Weather Forecast

Advertisements
Track Severe Weather on mobile